Time;durP1;ratioP1;P1;durP2;ratioP2;P2;SDS_P1;SDS_P2;PMS_P1;PMS_P2;Temp;Humidity;BMP_temperature;BMP_pressure;BME280_temperature;BME280_humidity;BME280_pressure;Samples;Min_cycle;Max_cycle;Signal;HPM_P1;HPM_P2
2023/05/30 03:00:23;;;;;;;106.47;100.83;;;13.70;99.90;;;;;;5952381;23;20234;-73
2023/05/30 03:02:49;;;;;;;100.37;95.13;;;13.60;99.90;;;;;;4989638;28;20224;-73
2023/05/30 03:05:15;;;;;;;92.83;87.80;;;13.50;99.90;;;;;;4976283;28;20188;-73
2023/05/30 03:07:41;;;;;;;86.93;82.17;;;13.50;99.90;;;;;;4966539;28;20199;-72
2023/05/30 03:10:07;;;;;;;89.43;84.23;;;13.40;99.90;;;;;;4991553;28;20636;-73
2023/05/30 03:12:33;;;;;;;58.00;54.80;;;13.40;99.90;;;;;;4974344;28;20189;-73
2023/05/30 03:14:58;;;;;;;23.43;21.93;;;13.40;99.90;;;;;;4985458;23;20247;-74
2023/05/30 03:17:24;;;;;;;42.97;40.43;;;13.40;99.90;;;;;;4992227;28;20184;-73
2023/05/30 03:19:50;;;;;;;30.67;28.93;;;13.30;99.90;;;;;;4993000;28;20698;-74
2023/05/30 03:22:16;;;;;;;23.47;21.90;;;13.30;99.90;;;;;;4978815;28;20213;-74
2023/05/30 03:24:41;;;;;;;30.10;28.30;;;13.40;99.90;;;;;;4972981;28;20205;-74
2023/05/30 03:27:07;;;;;;;20.90;19.60;;;13.30;99.90;;;;;;4955924;28;20204;-74
2023/05/30 03:29:33;;;;;;;23.83;22.37;;;13.30;99.90;;;;;;4973484;28;20185;-74
2023/05/30 03:32:00;;;;;;;22.13;20.33;;;13.30;99.90;;;;;;4972756;28;20201;-74
2023/05/30 03:34:25;;;;;;;23.47;21.77;;;13.30;99.90;;;;;;4956091;28;20212;-74
2023/05/30 03:36:52;;;;;;;27.03;25.13;;;13.30;99.90;;;;;;4973223;28;20673;-73
2023/05/30 03:39:19;;;;;;;22.63;21.33;;;13.30;99.90;;;;;;4973171;28;20193;-74
2023/05/30 03:41:45;;;;;;;20.27;19.07;;;13.30;99.90;;;;;;4955742;28;20263;-74
2023/05/30 03:44:11;;;;;;;20.17;18.83;;;13.30;99.90;;;;;;4972921;28;20209;-74
2023/05/30 03:46:36;;;;;;;24.07;22.67;;;13.30;99.90;;;;;;4968787;28;20666;-74
2023/05/30 03:49:02;;;;;;;35.50;33.03;;;13.30;99.90;;;;;;4946070;28;20206;-74
2023/05/30 03:51:28;;;;;;;25.63;24.10;;;13.30;99.90;;;;;;4966220;28;20276;-74
2023/05/30 03:53:54;;;;;;;28.63;26.87;;;13.20;99.90;;;;;;4972985;28;20699;-74
2023/05/30 03:56:20;;;;;;;26.73;24.87;;;13.20;99.90;;;;;;4959035;28;20219;-74
2023/05/30 03:58:46;;;;;;;21.00;19.40;;;13.20;99.90;;;;;;4951051;28;20197;-74
2023/05/30 04:01:11;;;;;;;21.20;19.50;;;13.30;99.90;;;;;;4972588;28;20216;-74
2023/05/30 04:03:37;;;;;;;33.73;31.50;;;13.40;99.90;;;;;;4973032;28;20216;-74
2023/05/30 04:06:05;;;;;;;54.33;50.87;;;13.40;99.90;;;;;;4972773;28;20189;-74
2023/05/30 04:08:31;;;;;;;82.57;78.10;;;13.50;99.90;;;;;;4955121;28;20656;-74
2023/05/30 04:10:57;;;;;;;84.50;79.97;;;13.60;99.90;;;;;;4941356;28;20677;-74
2023/05/30 04:13:23;;;;;;;78.40;74.27;;;13.80;99.90;;;;;;4969177;28;20224;-73
2023/05/30 04:15:49;;;;;;;80.17;75.80;;;13.80;99.90;;;;;;4972250;28;20199;-74
2023/05/30 04:18:15;;;;;;;77.33;73.17;;;13.90;99.90;;;;;;4971816;28;20189;-74
2023/05/30 04:20:41;;;;;;;75.60;71.53;;;14.00;99.90;;;;;;4955435;28;20212;-68
2023/05/30 04:23:06;;;;;;;58.97;54.97;;;14.20;99.90;;;;;;4977867;28;20191;-68
2023/05/30 04:25:33;;;;;;;54.07;49.93;;;14.30;99.90;;;;;;4959482;28;20208;-68
2023/05/30 04:28:00;;;;;;;45.67;42.27;;;14.30;99.90;;;;;;4970027;28;20604;-68
2023/05/30 04:30:26;;;;;;;31.23;28.83;;;14.30;99.90;;;;;;4972043;28;20200;-68
2023/05/30 04:32:52;;;;;;;44.63;41.73;;;14.30;99.90;;;;;;4972006;28;20212;-68
2023/05/30 04:35:18;;;;;;;41.30;38.70;;;14.30;99.90;;;;;;4971751;28;20209;-69
2023/05/30 04:37:44;;;;;;;49.63;47.00;;;14.30;99.90;;;;;;4971575;28;20248;-68
2023/05/30 04:40:12;;;;;;;48.27;45.43;;;14.30;99.90;;;;;;4971960;28;20684;-68
2023/05/30 04:42:42;;;;;;;45.80;43.23;;;14.30;99.90;;;;;;4970490;28;20205;-67
2023/05/30 04:45:09;;;;;;;48.40;45.13;;;14.30;99.90;;;;;;4974851;28;20231;-68
2023/05/30 04:47:36;;;;;;;38.60;31.90;;;14.30;99.90;;;;;;4965594;28;20615;-67
2023/05/30 04:50:02;;;;;;;42.57;39.43;;;14.30;99.90;;;;;;4972349;28;20199;-67
2023/05/30 04:52:29;;;;;;;43.23;40.30;;;14.40;99.90;;;;;;4968565;28;20664;-67
2023/05/30 04:54:55;;;;;;;31.97;29.80;;;14.50;99.90;;;;;;4951554;28;20224;-67
2023/05/30 04:57:21;;;;;;;29.00;27.17;;;14.50;99.90;;;;;;4965277;28;20192;-67
2023/05/30 04:59:47;;;;;;;29.50;27.70;;;14.60;99.90;;;;;;4970363;28;20188;-67
2023/05/30 05:02:13;;;;;;;14.90;13.87;;;14.70;99.90;;;;;;4971641;28;20762;-67
2023/05/30 05:04:39;;;;;;;9.50;8.80;;;14.80;99.90;;;;;;4973319;28;20213;-67
2023/05/30 05:07:05;;;;;;;9.60;7.60;;;14.90;99.90;;;;;;4969469;28;20315;-67
2023/05/30 05:09:31;;;;;;;8.25;6.68;;;15.00;99.90;;;;;;4971721;28;20196;-67
2023/05/30 05:11:57;;;;;;;8.47;7.17;;;15.20;99.90;;;;;;4971134;28;20227;-67
2023/05/30 05:14:23;;;;;;;15.50;14.15;;;15.40;99.90;;;;;;4968697;28;20306;-67
2023/05/30 05:16:49;;;;;;;52.38;49.50;;;15.50;99.90;;;;;;4971143;28;20212;-67
2023/05/30 05:19:15;;;;;;;47.13;44.35;;;15.70;99.90;;;;;;4968088;28;20565;-67
2023/05/30 05:21:41;;;;;;;91.35;86.20;;;15.90;99.90;;;;;;4966888;28;20303;-67
2023/05/30 05:24:08;;;;;;;49.28;46.35;;;16.10;99.90;;;;;;4971836;28;20212;-67
2023/05/30 05:26:34;;;;;;;15.85;14.52;;;16.20;99.90;;;;;;4954510;28;20189;-67
2023/05/30 05:29:00;;;;;;;7.65;6.93;;;16.40;99.90;;;;;;4971293;28;20201;-67
2023/05/30 05:31:26;;;;;;;6.13;5.63;;;16.50;99.90;;;;;;4972006;28;20768;-67
2023/05/30 05:33:52;;;;;;;18.33;16.92;;;16.70;99.90;;;;;;4967060;28;20209;-67
2023/05/30 05:36:19;;;;;;;16.58;15.07;;;16.90;99.90;;;;;;4971468;28;20196;-68
2023/05/30 05:38:44;;;;;;;9.93;8.48;;;17.20;99.90;;;;;;4972900;28;20189;-68
2023/05/30 05:41:10;;;;;;;8.00;7.13;;;17.40;99.90;;;;;;4975352;28;20258;-68
2023/05/30 05:43:36;;;;;;;12.85;11.85;;;17.60;99.90;;;;;;4950317;28;20217;-68
2023/05/30 05:46:03;;;;;;;22.27;20.60;;;17.70;99.90;;;;;;4975289;28;20562;-68
2023/05/30 05:48:28;;;;;;;22.75;21.20;;;17.80;99.90;;;;;;4972319;28;20694;-68
2023/05/30 05:50:54;;;;;;;16.30;14.07;;;18.00;99.90;;;;;;4975400;28;20193;-68
2023/05/30 05:53:20;;;;;;;10.25;9.30;;;18.10;99.90;;;;;;4975408;28;20224;-68
2023/05/30 05:55:46;;;;;;;11.20;10.50;;;18.30;99.90;;;;;;4975017;28;20579;-68
2023/05/30 05:58:12;;;;;;;50.92;47.42;;;18.50;99.90;;;;;;4957449;28;20547;-68
2023/05/30 06:00:38;;;;;;;41.10;38.70;;;18.50;99.90;;;;;;4975045;28;20208;-68
2023/05/30 06:03:05;;;;;;;81.38;77.00;;;18.60;99.90;;;;;;4956827;28;20208;-68
2023/05/30 06:05:30;;;;;;;77.60;72.95;;;18.70;99.90;;;;;;4957653;28;20668;-68
2023/05/30 06:07:58;;;;;;;45.42;42.97;;;18.80;99.90;;;;;;4974422;28;20189;-68
2023/05/30 06:10:27;;;;;;;30.58;28.83;;;18.80;99.90;;;;;;4974811;28;20223;-68
2023/05/30 06:12:53;;;;;;;15.18;14.23;;;19.00;99.90;;;;;;4974778;28;20193;-68
2023/05/30 06:15:19;;;;;;;9.40;8.60;;;19.10;99.90;;;;;;4976473;28;20224;-68
2023/05/30 06:17:45;;;;;;;9.15;8.55;;;19.20;99.90;;;;;;4968493;28;20260;-66
2023/05/30 06:20:11;;;;;;;9.50;8.45;;;19.00;99.90;;;;;;4974662;28;20205;-67
2023/05/30 06:22:38;;;;;;;8.30;7.43;;;19.10;99.90;;;;;;4957241;28;20236;-67
2023/05/30 06:25:05;;;;;;;7.97;7.18;;;19.20;99.90;;;;;;4974226;28;20205;-67
2023/05/30 06:27:31;;;;;;;9.90;9.18;;;19.40;99.90;;;;;;4974273;28;20193;-67
2023/05/30 06:29:57;;;;;;;10.13;9.30;;;19.50;99.90;;;;;;4974358;28;20189;-67
2023/05/30 06:32:23;;;;;;;9.88;8.85;;;19.50;99.90;;;;;;4972806;28;20201;-67
2023/05/30 06:34:48;;;;;;;10.05;9.00;;;19.60;99.90;;;;;;4974042;28;20212;-67
2023/05/30 06:37:15;;;;;;;9.63;9.02;;;19.60;99.90;;;;;;4974012;28;20251;-67
2023/05/30 06:39:41;;;;;;;9.43;8.73;;;19.70;99.90;;;;;;4957268;28;20201;-67
2023/05/30 06:42:10;;;;;;;9.30;7.90;;;19.90;99.90;;;;;;4977807;28;20221;-77
2023/05/30 06:44:37;;;;;;;8.48;7.10;;;20.20;99.90;;;;;;4962456;28;20213;-78
2023/05/30 06:47:03;;;;;;;8.30;7.55;;;20.40;99.90;;;;;;4960108;28;20188;-77
2023/05/30 06:49:29;;;;;;;7.82;7.07;;;20.40;99.90;;;;;;4979586;28;20189;-78
2023/05/30 06:51:55;;;;;;;6.10;5.50;;;20.60;99.90;;;;;;4962483;28;20247;-77
2023/05/30 06:54:21;;;;;;;6.97;6.30;;;20.40;99.90;;;;;;4980880;28;20676;-77
2023/05/30 06:56:47;;;;;;;10.38;9.57;;;20.10;99.90;;;;;;4981233;28;20661;-78
2023/05/30 06:59:13;;;;;;;8.45;7.65;;;19.90;99.90;;;;;;4978462;28;20260;-78
2023/05/30 07:01:39;;;;;;;5.72;5.30;;;20.20;99.90;;;;;;4960189;28;20747;-77
2023/05/30 07:04:05;;;;;;;8.02;6.60;;;20.20;99.90;;;;;;4964941;28;20209;-77
2023/05/30 07:06:31;;;;;;;6.28;5.68;;;20.20;99.90;;;;;;4973118;28;20192;-75
2023/05/30 07:08:57;;;;;;;7.00;5.60;;;20.60;99.90;;;;;;4958209;28;20216;-76
2023/05/30 07:11:23;;;;;;;7.78;6.10;;;21.20;99.40;;;;;;4965582;28;20197;-77
2023/05/30 07:13:49;;;;;;;7.25;4.80;;;21.70;97.70;;;;;;4966464;28;20249;-77
2023/05/30 07:16:15;;;;;;;5.85;5.35;;;21.70;97.50;;;;;;4975973;28;20192;-77
2023/05/30 07:18:41;;;;;;;6.90;5.13;;;21.50;97.10;;;;;;4975323;28;20207;-77
2023/05/30 07:21:07;;;;;;;5.82;5.32;;;21.20;97.40;;;;;;4965263;28;20224;-77
2023/05/30 07:23:36;;;;;;;6.32;5.57;;;21.50;97.10;;;;;;4961771;28;20300;-78
2023/05/30 07:26:02;;;;;;;5.95;5.32;;;21.70;96.40;;;;;;4960704;28;20665;-77
2023/05/30 07:28:27;;;;;;;6.63;5.15;;;22.10;95.90;;;;;;4953961;28;20196;-77
2023/05/30 07:30:53;;;;;;;10.15;9.23;;;22.10;95.80;;;;;;4960081;28;20192;-77
2023/05/30 07:33:19;;;;;;;18.15;16.95;;;22.20;95.20;;;;;;4964551;28;20300;-78
2023/05/30 07:35:45;;;;;;;17.65;16.65;;;22.30;94.30;;;;;;4963135;28;20235;-77
2023/05/30 07:38:11;;;;;;;25.48;23.83;;;22.20;94.50;;;;;;4980440;28;20197;-78
2023/05/30 07:40:37;;;;;;;26.40;24.80;;;22.40;93.80;;;;;;4962976;28;20567;-77
2023/05/30 07:43:03;;;;;;;28.95;27.08;;;22.30;94.00;;;;;;4989835;28;20215;-77
2023/05/30 07:45:28;;;;;;;27.20;25.58;;;22.10;94.00;;;;;;4969242;28;20190;-77
2023/05/30 07:47:54;;;;;;;16.15;15.15;;;21.90;93.80;;;;;;4964694;28;20194;-76
2023/05/30 07:50:20;;;;;;;26.25;24.75;;;22.10;94.50;;;;;;4947859;29;20196;-77
2023/05/30 07:52:46;;;;;;;26.85;25.08;;;22.20;94.40;;;;;;4961938;28;20204;-78
2023/05/30 07:55:12;;;;;;;28.25;26.80;;;22.60;92.90;;;;;;4940160;28;20614;-78
2023/05/30 07:57:38;;;;;;;10.40;9.70;;;21.70;93.00;;;;;;4972910;28;20189;-78
2023/05/30 08:00:08;;;;;;;8.00;7.40;;;21.10;94.40;;;;;;4979692;28;20688;-78
2023/05/30 08:02:35;;;;;;;11.65;9.77;;;21.60;94.00;;;;;;4967289;28;20266;-78
2023/05/30 08:05:00;;;;;;;26.92;25.48;;;22.10;93.80;;;;;;4972722;28;20224;-77
2023/05/30 08:07:26;;;;;;;19.77;18.40;;;22.60;93.00;;;;;;4967662;28;20213;-77
2023/05/30 08:09:52;;;;;;;12.45;11.25;;;22.70;91.40;;;;;;4985898;28;20195;-77
2023/05/30 08:12:19;;;;;;;6.82;6.38;;;23.00;91.40;;;;;;4954263;28;20189;-77
2023/05/30 08:14:46;;;;;;;9.40;7.68;;;22.90;91.40;;;;;;4959032;28;20221;-77
2023/05/30 08:17:15;;;;;;;10.65;9.82;;;22.70;91.50;;;;;;4976365;28;20646;-77
2023/05/30 08:19:42;;;;;;;9.23;8.38;;;22.50;91.70;;;;;;4959407;28;20181;-77
2023/05/30 08:22:10;;;;;;;6.93;6.32;;;22.60;91.20;;;;;;4964512;28;20739;-77
2023/05/30 08:24:36;;;;;;;8.95;5.57;;;22.80;90.90;;;;;;4964029;28;20197;-77
2023/05/30 08:27:03;;;;;;;8.15;6.30;;;23.40;91.30;;;;;;4959947;28;20272;-77
2023/05/30 08:29:30;;;;;;;7.93;5.60;;;24.10;89.20;;;;;;4961766;28;20189;-77
2023/05/30 08:31:56;;;;;;;11.02;5.90;;;24.30;87.90;;;;;;4977057;28;20576;-77
2023/05/30 08:34:24;;;;;;;7.13;6.30;;;23.50;88.40;;;;;;4978764;28;20232;-77
2023/05/30 08:36:53;;;;;;;6.53;5.97;;;23.80;88.20;;;;;;4980675;28;20274;-78
2023/05/30 08:39:20;;;;;;;10.65;8.75;;;24.10;88.10;;;;;;4962080;28;20343;-78
2023/05/30 08:41:46;;;;;;;6.93;6.20;;;24.30;88.80;;;;;;4962337;28;20224;-78
2023/05/30 08:44:12;;;;;;;6.15;5.65;;;25.10;84.30;;;;;;4964645;28;20232;-76
2023/05/30 08:46:45;;;;;;;7.10;6.50;;;25.30;83.10;;;;;;4963758;28;20267;-77
2023/05/30 08:49:20;;;;;;;6.53;5.13;;;25.80;82.10;;;;;;4963790;28;20189;-77
2023/05/30 08:51:48;;;;;;;5.95;5.28;;;25.70;80.00;;;;;;4959966;28;20289;-77
2023/05/30 08:54:21;;;;;;;5.97;5.38;;;25.70;80.20;;;;;;4962201;28;20231;-77
2023/05/30 08:56:55;;;;;;;5.18;4.78;;;25.80;80.10;;;;;;4962506;28;20189;-77
2023/05/30 08:59:23;;;;;;;6.18;5.63;;;25.10;79.20;;;;;;4978989;28;20565;-77
2023/05/30 09:01:50;;;;;;;6.95;6.35;;;24.10;81.90;;;;;;4979928;28;20220;-78
2023/05/30 09:04:18;;;;;;;7.15;6.43;;;23.70;84.30;;;;;;4960788;28;20208;-79
2023/05/30 09:06:45;;;;;;;6.40;5.95;;;24.50;84.70;;;;;;4977688;28;20189;-78
2023/05/30 09:09:13;;;;;;;7.55;6.20;;;24.60;83.80;;;;;;4961272;28;20200;-79
2023/05/30 09:11:43;;;;;;;6.57;5.88;;;25.40;82.20;;;;;;4960424;28;20228;-76
2023/05/30 09:14:08;;;;;;;6.57;6.03;;;25.20;80.10;;;;;;4997581;23;20296;-76
2023/05/30 09:16:35;;;;;;;7.15;5.88;;;25.30;82.90;;;;;;4975872;28;20774;-76
2023/05/30 09:19:01;;;;;;;6.15;5.60;;;25.70;80.70;;;;;;4967770;28;20809;-75
2023/05/30 09:21:27;;;;;;;11.18;5.55;;;26.00;79.60;;;;;;4958699;28;20240;-76
2023/05/30 09:23:53;;;;;;;4.90;4.53;;;26.40;78.70;;;;;;4973007;28;20281;-79
2023/05/30 09:26:18;;;;;;;6.20;5.60;;;26.30;76.00;;;;;;4958081;28;20607;-76
2023/05/30 09:28:48;;;;;;;5.18;4.72;;;26.00;78.70;;;;;;4939013;29;20189;-76
2023/05/30 09:31:15;;;;;;;5.00;4.63;;;26.90;77.10;;;;;;4956589;28;20200;-76
2023/05/30 09:33:43;;;;;;;6.30;5.47;;;26.80;75.30;;;;;;4939347;29;20206;-76
2023/05/30 09:36:15;;;;;;;8.02;7.43;;;26.80;75.20;;;;;;4951999;28;20244;-76
2023/05/30 09:39:06;;;;;;;9.30;6.40;;;27.20;73.00;;;;;;4952708;29;20190;-76
2023/05/30 09:41:33;;;;;;;8.90;7.22;;;26.90;76.10;;;;;;4934435;29;20217;-76
2023/05/30 09:43:59;;;;;;;9.30;8.60;;;27.00;72.40;;;;;;4956376;28;20217;-77
2023/05/30 09:46:27;;;;;;;7.13;6.63;;;26.70;72.50;;;;;;4939151;29;20186;-74
2023/05/30 09:48:53;;;;;;;8.00;7.05;;;26.40;74.00;;;;;;4955563;28;20189;-74
2023/05/30 09:51:21;;;;;;;11.05;7.60;;;26.50;74.20;;;;;;4955978;28;20281;-74
2023/05/30 09:54:02;;;;;;;7.47;6.82;;;27.20;71.60;;;;;;4955921;28;20260;-74
2023/05/30 09:56:38;;;;;;;9.52;8.73;;;27.00;69.20;;;;;;4955905;28;20283;-74
2023/05/30 09:59:08;;;;;;;8.48;7.75;;;26.30;71.00;;;;;;4938339;28;20192;-74
2023/05/30 10:01:45;;;;;;;10.45;9.80;;;26.10;72.50;;;;;;4937948;29;20339;-74
2023/05/30 10:04:16;;;;;;;9.65;8.85;;;26.70;69.60;;;;;;4955829;28;20560;-75
2023/05/30 10:06:44;;;;;;;9.85;8.85;;;26.70;69.50;;;;;;4938645;29;20264;-74
2023/05/30 10:09:11;;;;;;;10.15;9.55;;;26.30;69.90;;;;;;4955246;28;20240;-75
2023/05/30 10:11:39;;;;;;;6.80;6.03;;;26.50;71.60;;;;;;4955646;28;20654;-74
2023/05/30 10:14:06;;;;;;;6.57;5.97;;;27.30;66.30;;;;;;4938085;28;20229;-74
2023/05/30 10:16:40;;;;;;;6.38;5.78;;;27.40;68.30;;;;;;4954758;28;20189;-76
2023/05/30 10:19:12;;;;;;;7.07;6.60;;;27.20;66.70;;;;;;4937796;28;20204;-76
2023/05/30 10:21:39;;;;;;;6.85;6.30;;;27.60;67.10;;;;;;4938243;29;20213;-76
2023/05/30 10:24:09;;;;;;;6.18;5.68;;;28.00;66.80;;;;;;4938152;28;20607;-73
2023/05/30 10:26:39;;;;;;;5.80;5.30;;;28.90;64.70;;;;;;4955232;28;20289;-75
2023/05/30 10:29:08;;;;;;;6.68;6.00;;;29.40;64.20;;;;;;4937788;28;20186;-75
2023/05/30 10:31:36;;;;;;;8.60;7.55;;;28.70;62.50;;;;;;4954889;28;20617;-75
2023/05/30 10:34:05;;;;;;;7.07;6.47;;;28.30;61.40;;;;;;4954931;28;20213;-75
2023/05/30 10:36:32;;;;;;;7.05;6.53;;;28.50;61.70;;;;;;4954957;28;20185;-75
2023/05/30 10:39:10;;;;;;;8.80;8.20;;;28.60;60.60;;;;;;4954662;28;20248;-76
2023/05/30 10:41:49;;;;;;;9.40;8.55;;;28.80;59.80;;;;;;4954882;28;20703;-76
2023/05/30 10:44:35;;;;;;;8.55;7.88;;;29.10;59.90;;;;;;4954172;28;20627;-76
2023/05/30 10:47:39;;;;;;;8.25;7.63;;;29.30;59.40;;;;;;4929893;28;20208;-76
2023/05/30 10:50:15;;;;;;;24.33;22.83;;;29.80;59.90;;;;;;4955184;28;20268;-76
2023/05/30 10:52:43;;;;;;;17.08;16.00;;;30.20;57.50;;;;;;4937931;29;20501;-75
2023/05/30 10:55:10;;;;;;;10.85;10.07;;;29.00;57.30;;;;;;4954605;28;20213;-76
2023/05/30 10:57:36;;;;;;;18.55;17.40;;;28.90;57.80;;;;;;4954233;28;20627;-74
2023/05/30 11:00:26;;;;;;;14.70;13.88;;;29.60;56.70;;;;;;4954003;28;20186;-75
2023/05/30 11:02:54;;;;;;;21.90;20.25;;;29.10;58.50;;;;;;4937602;29;20263;-75
2023/05/30 11:05:40;;;;;;;20.67;19.15;;;29.60;56.60;;;;;;4954477;28;20220;-74
2023/05/30 11:08:06;;;;;;;22.23;20.70;;;29.20;57.30;;;;;;4954005;28;20767;-74
2023/05/30 11:10:33;;;;;;;29.08;27.02;;;29.80;56.60;;;;;;4954522;28;20293;-75
2023/05/30 11:13:10;;;;;;;51.47;48.80;;;29.80;56.70;;;;;;4954336;28;20666;-75
2023/05/30 11:15:36;;;;;;;66.35;62.97;;;30.60;55.50;;;;;;4932632;29;20209;-75
2023/05/30 11:18:17;;;;;;;74.90;71.18;;;30.90;55.10;;;;;;4951902;28;20186;-75
2023/05/30 11:20:54;;;;;;;48.80;46.25;;;31.00;54.70;;;;;;4954962;28;20205;-75
2023/05/30 11:23:21;;;;;;;64.50;61.28;;;30.90;52.30;;;;;;4957985;28;20524;-75
2023/05/30 11:25:47;;;;;;;72.57;68.90;;;30.30;53.30;;;;;;4958298;28;20181;-74
2023/05/30 11:28:15;;;;;;;61.88;58.33;;;30.10;54.00;;;;;;4955172;28;20196;-75
2023/05/30 11:30:50;;;;;;;67.45;63.83;;;30.10;54.60;;;;;;4937975;29;20559;-74
2023/05/30 11:33:17;;;;;;;74.70;70.88;;;30.60;54.00;;;;;;4953092;28;20736;-75
2023/05/30 11:35:48;;;;;;;81.53;77.20;;;30.50;54.20;;;;;;4936935;29;20189;-76
2023/05/30 11:38:19;;;;;;;52.05;49.40;;;29.90;55.00;;;;;;4936720;28;20190;-76
2023/05/30 11:40:45;;;;;;;55.33;52.47;;;29.20;55.40;;;;;;4937052;29;20260;-74
2023/05/30 11:43:14;;;;;;;73.15;69.28;;;29.80;55.80;;;;;;4936861;28;20662;-73
2023/05/30 11:45:40;;;;;;;56.75;53.35;;;31.00;54.50;;;;;;4936183;29;20205;-74
2023/05/30 11:48:08;;;;;;;39.05;36.75;;;32.10;53.40;;;;;;4953448;28;20252;-73
2023/05/30 11:50:41;;;;;;;25.90;24.33;;;32.10;51.20;;;;;;4934544;28;20248;-76
2023/05/30 11:53:14;;;;;;;32.25;30.02;;;32.60;52.60;;;;;;4953674;28;20197;-73
2023/05/30 11:55:49;;;;;;;38.45;36.17;;;33.10;51.20;;;;;;4936488;29;20217;-75
2023/05/30 11:58:16;;;;;;;46.75;44.08;;;33.50;49.70;;;;;;4952542;28;20197;-74
2023/05/30 12:00:42;;;;;;;45.58;43.08;;;31.90;50.30;;;;;;4952504;28;20245;-73
2023/05/30 12:03:18;;;;;;;34.70;32.65;;;30.40;52.30;;;;;;4934244;28;20207;-75
2023/05/30 12:05:45;;;;;;;34.45;32.60;;;30.70;52.40;;;;;;4936181;29;20240;-75
2023/05/30 12:08:16;;;;;;;34.90;33.03;;;31.80;51.60;;;;;;4953440;28;20185;-73
2023/05/30 12:10:43;;;;;;;31.95;30.17;;;32.90;51.00;;;;;;4952945;28;20260;-73
2023/05/30 12:13:09;;;;;;;28.20;26.45;;;33.50;48.50;;;;;;4952540;28;20263;-75
2023/05/30 12:15:37;;;;;;;37.08;35.10;;;32.30;48.40;;;;;;4952821;28;20252;-74
2023/05/30 12:18:04;;;;;;;49.67;46.95;;;30.20;50.70;;;;;;4952792;28;20185;-74
2023/05/30 12:20:30;;;;;;;60.67;57.53;;;29.40;53.60;;;;;;4943499;29;20287;-74
2023/05/30 12:22:56;;;;;;;65.15;61.83;;;29.80;52.00;;;;;;4952418;28;20241;-74
2023/05/30 12:25:26;;;;;;;66.00;62.35;;;29.90;51.70;;;;;;4935882;29;20210;-74
2023/05/30 12:27:55;;;;;;;48.08;45.38;;;30.50;51.50;;;;;;4934900;29;20211;-74
2023/05/30 12:30:21;;;;;;;41.90;39.53;;;31.70;50.80;;;;;;4949648;28;20186;-74
2023/05/30 12:32:48;;;;;;;44.47;42.13;;;32.50;48.20;;;;;;4933139;29;20193;-74
2023/05/30 12:35:15;;;;;;;44.35;41.75;;;31.10;49.30;;;;;;4952769;28;20240;-74
2023/05/30 12:37:41;;;;;;;67.05;63.40;;;29.30;51.40;;;;;;4952011;28;20197;-74
2023/05/30 12:40:08;;;;;;;67.10;63.60;;;28.10;54.50;;;;;;4935496;28;20253;-74
2023/05/30 12:42:37;;;;;;;40.05;37.55;;;28.60;53.20;;;;;;4934910;29;20280;-74
2023/05/30 12:45:05;;;;;;;22.50;21.10;;;28.20;53.10;;;;;;4935336;28;20240;-73
2023/05/30 12:47:31;;;;;;;54.40;51.25;;;28.70;53.10;;;;;;4951765;28;20838;-74
2023/05/30 12:49:57;;;;;;;70.95;67.22;;;29.80;51.80;;;;;;4935344;28;20210;-74
2023/05/30 12:52:25;;;;;;;49.92;47.40;;;31.10;51.00;;;;;;4952706;28;20201;-74
2023/05/30 12:54:52;;;;;;;57.35;54.17;;;31.50;49.80;;;;;;4952791;28;20206;-74
2023/05/30 12:57:20;;;;;;;61.35;58.22;;;30.30;50.70;;;;;;4938050;28;20542;-74
2023/05/30 12:59:47;;;;;;;21.23;19.70;;;28.80;52.90;;;;;;4935621;29;20677;-74
2023/05/30 13:02:13;;;;;;;9.55;8.50;;;27.70;55.40;;;;;;4951930;28;20701;-74
2023/05/30 13:04:40;;;;;;;33.47;31.30;;;28.30;56.00;;;;;;4952344;28;20213;-74
2023/05/30 13:07:09;;;;;;;92.85;88.03;;;29.80;53.50;;;;;;4951849;28;20213;-74
2023/05/30 13:09:41;;;;;;;49.42;46.80;;;31.30;50.70;;;;;;4934706;29;20225;-73
2023/05/30 13:12:10;;;;;;;39.22;37.05;;;32.20;49.20;;;;;;4952455;28;20200;-74
2023/05/30 13:14:36;;;;;;;40.35;38.22;;;33.50;48.50;;;;;;4952126;28;20700;-74
2023/05/30 13:17:03;;;;;;;11.57;10.68;;;34.40;46.50;;;;;;4934769;28;20252;-74
2023/05/30 13:19:30;;;;;;;19.25;18.25;;;34.40;45.20;;;;;;4952301;28;20198;-74
2023/05/30 13:21:56;;;;;;;37.65;35.63;;;32.60;46.40;;;;;;4952141;28;20308;-74
2023/05/30 13:24:21;;;;;;;53.45;50.70;;;30.10;49.80;;;;;;4934490;29;20344;-74
2023/05/30 13:26:47;;;;;;;63.97;60.45;;;28.40;51.30;;;;;;4935224;29;20197;-73
2023/05/30 13:29:13;;;;;;;81.93;77.55;;;28.50;53.00;;;;;;4951785;28;20185;-74
2023/05/30 13:31:39;;;;;;;59.13;56.05;;;29.80;51.10;;;;;;4951957;28;20201;-74
2023/05/30 13:34:05;;;;;;;49.47;46.65;;;31.30;48.40;;;;;;4951875;28;20824;-74
2023/05/30 13:36:31;;;;;;;44.65;42.30;;;32.10;48.90;;;;;;4952262;28;20698;-74
2023/05/30 13:38:56;;;;;;;42.47;40.03;;;32.50;46.60;;;;;;4950925;28;20182;-74
2023/05/30 13:41:24;;;;;;;38.72;36.58;;;31.60;46.80;;;;;;4952281;28;20222;-74
2023/05/30 13:43:50;;;;;;;33.72;31.92;;;31.20;47.50;;;;;;4952358;28;20214;-74
2023/05/30 13:46:17;;;;;;;42.70;40.28;;;31.10;48.20;;;;;;4951922;28;20189;-73
2023/05/30 13:48:43;;;;;;;47.92;45.08;;;31.50;48.20;;;;;;4942266;29;20263;-73
2023/05/30 13:51:10;;;;;;;43.83;41.50;;;31.70;46.60;;;;;;4952371;28;20197;-73
2023/05/30 13:53:36;;;;;;;59.25;55.78;;;31.80;48.00;;;;;;4951620;28;20182;-74
2023/05/30 13:56:02;;;;;;;47.20;43.97;;;33.00;46.60;;;;;;4956969;28;20185;-74
2023/05/30 13:58:28;;;;;;;41.75;39.58;;;32.90;46.10;;;;;;4951745;28;20639;-73
2023/05/30 14:00:54;;;;;;;29.80;27.85;;;32.80;46.30;;;;;;4951696;28;20186;-73
2023/05/30 14:03:20;;;;;;;30.73;28.70;;;32.90;45.30;;;;;;4952298;28;20193;-74
2023/05/30 14:05:46;;;;;;;49.00;46.20;;;31.60;45.40;;;;;;4955650;28;20197;-73
2023/05/30 14:08:12;;;;;;;44.50;42.22;;;30.70;46.30;;;;;;4937732;28;20182;-72
2023/05/30 14:10:37;;;;;;;59.42;56.33;;;29.80;47.80;;;;;;4953076;28;20775;-75
2023/05/30 14:13:05;;;;;;;56.58;53.58;;;29.50;48.70;;;;;;4953289;28;20193;-73
2023/05/30 14:15:32;;;;;;;61.80;58.38;;;30.00;48.60;;;;;;4955147;28;20257;-74
2023/05/30 14:17:58;;;;;;;55.88;52.83;;;31.30;48.00;;;;;;4955006;28;20186;-73
2023/05/30 14:20:24;;;;;;;56.35;53.30;;;30.30;47.90;;;;;;4955971;28;20221;-74
2023/05/30 14:22:51;;;;;;;78.63;74.55;;;29.20;50.20;;;;;;4956308;28;20256;-74
2023/05/30 14:25:17;;;;;;;53.88;51.05;;;30.20;49.90;;;;;;4956211;28;20217;-74
2023/05/30 14:27:43;;;;;;;49.63;46.88;;;31.40;47.60;;;;;;4955347;28;20534;-74
2023/05/30 14:30:13;;;;;;;44.15;41.70;;;31.90;46.60;;;;;;4938223;28;20196;-73
2023/05/30 14:32:41;;;;;;;46.42;43.90;;;31.50;47.00;;;;;;4955299;28;20194;-76
2023/05/30 14:35:09;;;;;;;47.22;44.78;;;31.80;46.10;;;;;;4954634;28;21879;-73
2023/05/30 14:37:35;;;;;;;56.15;52.95;;;31.70;46.00;;;;;;4954612;28;20260;-73
2023/05/30 14:40:02;;;;;;;49.95;47.40;;;31.90;46.40;;;;;;4954746;28;20190;-73
2023/05/30 14:42:28;;;;;;;41.03;38.85;;;32.20;45.00;;;;;;4954867;28;20217;-74
2023/05/30 14:44:54;;;;;;;16.75;15.57;;;32.90;45.80;;;;;;4954191;28;20630;-74
2023/05/30 14:47:23;;;;;;;16.10;15.18;;;33.90;44.10;;;;;;4946524;28;20189;-73
2023/05/30 14:49:48;;;;;;;25.65;24.15;;;33.20;42.90;;;;;;4954009;28;20596;-73
2023/05/30 14:52:14;;;;;;;26.98;25.52;;;32.10;44.70;;;;;;4937643;28;20197;-74
2023/05/30 14:54:40;;;;;;;19.67;18.48;;;32.60;44.90;;;;;;4937674;29;20296;-74
2023/05/30 14:57:07;;;;;;;17.55;16.65;;;33.20;45.00;;;;;;4954299;28;20198;-74
2023/05/30 14:59:33;;;;;;;16.05;15.15;;;33.60;43.50;;;;;;4948623;28;20185;-74
2023/05/30 15:01:59;;;;;;;18.98;17.90;;;33.60;43.10;;;;;;4951847;28;20228;-73
2023/05/30 15:04:26;;;;;;;31.75;29.70;;;33.10;42.30;;;;;;4954566;28;20208;-73
2023/05/30 15:06:53;;;;;;;34.88;33.05;;;31.50;44.90;;;;;;4937242;29;20201;-73
2023/05/30 15:09:20;;;;;;;42.40;39.90;;;31.80;44.70;;;;;;4937261;29;20662;-73
2023/05/30 15:11:47;;;;;;;46.03;43.42;;;31.10;46.00;;;;;;4936345;29;20193;-73
2023/05/30 15:14:13;;;;;;;29.80;27.70;;;31.50;45.30;;;;;;4959860;23;20225;-76
2023/05/30 15:16:39;;;;;;;20.00;18.80;;;32.60;44.70;;;;;;4955605;28;20212;-76
2023/05/30 15:19:05;;;;;;;18.08;17.08;;;33.10;43.60;;;;;;4955787;28;20196;-76
2023/05/30 15:21:32;;;;;;;19.30;18.13;;;32.70;42.40;;;;;;4964956;28;20593;-76
2023/05/30 15:23:59;;;;;;;15.40;14.52;;;32.60;42.90;;;;;;4971562;28;20180;-76
2023/05/30 15:26:27;;;;;;;40.63;38.15;;;32.70;42.60;;;;;;4957866;28;20232;-76
2023/05/30 15:28:53;;;;;;;36.40;33.58;;;31.40;45.40;;;;;;4930109;29;20185;-76
2023/05/30 15:31:20;;;;;;;25.33;23.90;;;32.10;44.60;;;;;;4929177;28;20193;-76
2023/05/30 15:33:46;;;;;;;16.05;15.02;;;32.70;43.70;;;;;;4954133;28;20284;-76